sensor_id;sensor_type;location;lat;lon;timestamp;temperature;humidity
13389;DHT22;6764;53.250;10.410;2023-08-17T00:01:24;20.00;99.90
13389;DHT22;6764;53.250;10.410;2023-08-17T00:03:50;20.00;99.90
13389;DHT22;6764;53.250;10.410;2023-08-17T00:06:15;20.10;99.90
13389;DHT22;6764;53.250;10.410;2023-08-17T00:08:42;20.10;99.90
13389;DHT22;6764;53.250;10.410;2023-08-17T00:11:08;20.00;99.90
13389;DHT22;6764;53.250;10.410;2023-08-17T00:13:34;20.00;99.90
13389;DHT22;6764;53.250;10.410;2023-08-17T00:16:00;20.10;99.90
13389;DHT22;6764;53.250;10.410;2023-08-17T00:18:25;20.00;99.90
13389;DHT22;6764;53.250;10.410;2023-08-17T00:20:51;20.00;99.90
13389;DHT22;6764;53.250;10.410;2023-08-17T00:23:17;20.00;99.90
13389;DHT22;6764;53.250;10.410;2023-08-17T00:25:42;20.00;99.90
13389;DHT22;6764;53.250;10.410;2023-08-17T00:28:08;20.00;99.90
13389;DHT22;6764;53.250;10.410;2023-08-17T00:30:34;20.00;99.90
13389;DHT22;6764;53.250;10.410;2023-08-17T00:33:03;20.00;99.90
13389;DHT22;6764;53.250;10.410;2023-08-17T00:35:28;20.00;99.90
13389;DHT22;6764;53.250;10.410;2023-08-17T00:37:55;20.00;99.90
13389;DHT22;6764;53.250;10.410;2023-08-17T00:40:20;20.00;99.90
13389;DHT22;6764;53.250;10.410;2023-08-17T00:42:46;19.90;99.90
13389;DHT22;6764;53.250;10.410;2023-08-17T00:45:11;19.90;99.90
13389;DHT22;6764;53.250;10.410;2023-08-17T00:47:37;19.90;99.90
13389;DHT22;6764;53.250;10.410;2023-08-17T00:50:03;19.80;99.90
13389;DHT22;6764;53.250;10.410;2023-08-17T00:52:30;19.80;99.90
13389;DHT22;6764;53.250;10.410;2023-08-17T00:54:57;19.80;99.90
13389;DHT22;6764;53.250;10.410;2023-08-17T00:57:23;19.80;99.90
13389;DHT22;6764;53.250;10.410;2023-08-17T00:59:49;19.70;99.90
13389;DHT22;6764;53.250;10.410;2023-08-17T01:02:17;19.80;99.90
13389;DHT22;6764;53.250;10.410;2023-08-17T01:04:43;19.90;99.90
13389;DHT22;6764;53.250;10.410;2023-08-17T01:07:09;19.80;99.90
13389;DHT22;6764;53.250;10.410;2023-08-17T01:09:34;19.80;99.90
13389;DHT22;6764;53.250;10.410;2023-08-17T01:12:29;19.70;99.90
13389;DHT22;6764;53.250;10.410;2023-08-17T01:15:05;19.70;99.90
13389;DHT22;6764;53.250;10.410;2023-08-17T01:17:40;19.70;99.90
13389;DHT22;6764;53.250;10.410;2023-08-17T01:20:08;19.70;99.90
13389;DHT22;6764;53.250;10.410;2023-08-17T01:22:35;19.80;99.90
13389;DHT22;6764;53.250;10.410;2023-08-17T01:25:02;19.70;99.90
13389;DHT22;6764;53.250;10.410;2023-08-17T01:27:40;19.70;99.90
13389;DHT22;6764;53.250;10.410;2023-08-17T01:30:07;19.70;99.90
13389;DHT22;6764;53.250;10.410;2023-08-17T01:32:58;19.60;99.90
13389;DHT22;6764;53.250;10.410;2023-08-17T01:35:34;19.70;99.90
13389;DHT22;6764;53.250;10.410;2023-08-17T01:38:06;19.70;99.90
13389;DHT22;6764;53.250;10.410;2023-08-17T01:40:33;19.80;99.90
13389;DHT22;6764;53.250;10.410;2023-08-17T01:43:00;19.80;99.90
13389;DHT22;6764;53.250;10.410;2023-08-17T01:45:27;19.70;99.90
13389;DHT22;6764;53.250;10.410;2023-08-17T01:47:52;19.70;99.90
13389;DHT22;6764;53.250;10.410;2023-08-17T01:50:18;19.60;99.90
13389;DHT22;6764;53.250;10.410;2023-08-17T01:52:44;19.60;99.90
13389;DHT22;6764;53.250;10.410;2023-08-17T01:55:09;19.60;99.90
13389;DHT22;6764;53.250;10.410;2023-08-17T01:57:35;19.60;99.90
13389;DHT22;6764;53.250;10.410;2023-08-17T02:00:06;19.70;99.90
13389;DHT22;6764;53.250;10.410;2023-08-17T02:02:32;19.60;99.90
13389;DHT22;6764;53.250;10.410;2023-08-17T02:04:57;19.60;99.90
13389;DHT22;6764;53.250;10.410;2023-08-17T02:07:23;19.50;99.90
13389;DHT22;6764;53.250;10.410;2023-08-17T02:09:49;19.50;99.90
13389;DHT22;6764;53.250;10.410;2023-08-17T02:12:14;19.50;99.90
13389;DHT22;6764;53.250;10.410;2023-08-17T02:14:40;19.60;99.90
13389;DHT22;6764;53.250;10.410;2023-08-17T02:17:05;19.60;99.90
13389;DHT22;6764;53.250;10.410;2023-08-17T02:19:31;19.70;99.90
13389;DHT22;6764;53.250;10.410;2023-08-17T02:21:58;19.60;99.90
13389;DHT22;6764;53.250;10.410;2023-08-17T02:24:24;19.60;99.90
13389;DHT22;6764;53.250;10.410;2023-08-17T02:26:50;19.70;99.90
13389;DHT22;6764;53.250;10.410;2023-08-17T02:29:15;19.70;99.90
13389;DHT22;6764;53.250;10.410;2023-08-17T02:31:41;19.60;99.90
13389;DHT22;6764;53.250;10.410;2023-08-17T02:34:06;19.60;99.90
13389;DHT22;6764;53.250;10.410;2023-08-17T02:36:33;19.60;99.90
13389;DHT22;6764;53.250;10.410;2023-08-17T02:38:58;19.60;99.90
13389;DHT22;6764;53.250;10.410;2023-08-17T02:41:24;19.60;99.90
13389;DHT22;6764;53.250;10.410;2023-08-17T02:43:50;19.70;99.90
13389;DHT22;6764;53.250;10.410;2023-08-17T02:46:15;19.70;99.90
13389;DHT22;6764;53.250;10.410;2023-08-17T02:48:41;19.70;99.90
13389;DHT22;6764;53.250;10.410;2023-08-17T02:51:06;19.80;99.90
13389;DHT22;6764;53.250;10.410;2023-08-17T02:53:32;19.70;99.90
13389;DHT22;6764;53.250;10.410;2023-08-17T02:55:58;19.70;99.90
13389;DHT22;6764;53.250;10.410;2023-08-17T02:58:23;19.80;99.90
13389;DHT22;6764;53.250;10.410;2023-08-17T03:00:51;19.80;99.90
13389;DHT22;6764;53.250;10.410;2023-08-17T03:03:17;19.80;99.90
13389;DHT22;6764;53.250;10.410;2023-08-17T03:05:43;19.80;99.90
13389;DHT22;6764;53.250;10.410;2023-08-17T03:08:08;19.70;99.90
13389;DHT22;6764;53.250;10.410;2023-08-17T03:10:34;19.60;99.90
13389;DHT22;6764;53.250;10.410;2023-08-17T03:12:59;19.50;99.90
13389;DHT22;6764;53.250;10.410;2023-08-17T03:15:25;19.60;99.90
13389;DHT22;6764;53.250;10.410;2023-08-17T03:17:51;19.70;99.90
13389;DHT22;6764;53.250;10.410;2023-08-17T03:20:16;19.70;99.90
13389;DHT22;6764;53.250;10.410;2023-08-17T03:22:42;19.70;99.90
13389;DHT22;6764;53.250;10.410;2023-08-17T03:25:08;19.80;99.90
13389;DHT22;6764;53.250;10.410;2023-08-17T03:27:33;19.70;99.90
13389;DHT22;6764;53.250;10.410;2023-08-17T03:29:59;19.60;99.90
13389;DHT22;6764;53.250;10.410;2023-08-17T03:32:25;19.60;99.90
13389;DHT22;6764;53.250;10.410;2023-08-17T03:34:50;19.60;99.90
13389;DHT22;6764;53.250;10.410;2023-08-17T03:37:16;19.60;99.90
13389;DHT22;6764;53.250;10.410;2023-08-17T03:39:42;19.70;99.90
13389;DHT22;6764;53.250;10.410;2023-08-17T03:42:07;19.70;99.90
13389;DHT22;6764;53.250;10.410;2023-08-17T03:44:33;19.70;99.90
13389;DHT22;6764;53.250;10.410;2023-08-17T03:46:58;19.80;99.90
13389;DHT22;6764;53.250;10.410;2023-08-17T03:49:24;19.80;99.90
13389;DHT22;6764;53.250;10.410;2023-08-17T03:51:50;19.80;99.90
13389;DHT22;6764;53.250;10.410;2023-08-17T03:54:17;19.80;99.90
13389;DHT22;6764;53.250;10.410;2023-08-17T03:56:42;19.80;99.90
13389;DHT22;6764;53.250;10.410;2023-08-17T03:59:08;19.60;99.90
13389;DHT22;6764;53.250;10.410;2023-08-17T04:01:34;19.70;99.90
13389;DHT22;6764;53.250;10.410;2023-08-17T04:03:59;19.70;99.90
13389;DHT22;6764;53.250;10.410;2023-08-17T04:06:25;19.60;99.90
13389;DHT22;6764;53.250;10.410;2023-08-17T04:08:50;19.50;99.90
13389;DHT22;6764;53.250;10.410;2023-08-17T04:11:16;19.40;99.90
13389;DHT22;6764;53.250;10.410;2023-08-17T04:13:42;19.40;99.90
13389;DHT22;6764;53.250;10.410;2023-08-17T04:16:07;19.40;99.90
13389;DHT22;6764;53.250;10.410;2023-08-17T04:18:33;19.30;99.90
13389;DHT22;6764;53.250;10.410;2023-08-17T04:20:58;19.40;99.90
13389;DHT22;6764;53.250;10.410;2023-08-17T04:23:24;19.50;99.90
13389;DHT22;6764;53.250;10.410;2023-08-17T04:25:50;19.60;99.90
13389;DHT22;6764;53.250;10.410;2023-08-17T04:28:15;19.50;99.90
13389;DHT22;6764;53.250;10.410;2023-08-17T04:30:41;19.40;99.90
13389;DHT22;6764;53.250;10.410;2023-08-17T04:33:07;19.30;99.90
13389;DHT22;6764;53.250;10.410;2023-08-17T04:35:33;19.20;99.90
13389;DHT22;6764;53.250;10.410;2023-08-17T04:37:59;19.10;99.90
13389;DHT22;6764;53.250;10.410;2023-08-17T04:40:24;19.10;99.90
13389;DHT22;6764;53.250;10.410;2023-08-17T04:42:50;19.00;99.90
13389;DHT22;6764;53.250;10.410;2023-08-17T04:45:16;19.00;99.90
13389;DHT22;6764;53.250;10.410;2023-08-17T04:47:41;19.00;99.90
13389;DHT22;6764;53.250;10.410;2023-08-17T04:50:07;19.00;99.90
13389;DHT22;6764;53.250;10.410;2023-08-17T04:52:33;19.10;99.90
13389;DHT22;6764;53.250;10.410;2023-08-17T04:54:58;19.00;99.90
13389;DHT22;6764;53.250;10.410;2023-08-17T04:57:24;19.00;99.90
13389;DHT22;6764;53.250;10.410;2023-08-17T04:59:51;18.90;99.90
13389;DHT22;6764;53.250;10.410;2023-08-17T05:02:17;19.00;99.90
13389;DHT22;6764;53.250;10.410;2023-08-17T05:04:42;19.00;99.90
13389;DHT22;6764;53.250;10.410;2023-08-17T05:07:08;18.90;99.90
13389;DHT22;6764;53.250;10.410;2023-08-17T05:09:34;18.90;99.90
13389;DHT22;6764;53.250;10.410;2023-08-17T05:11:59;18.80;99.90
13389;DHT22;6764;53.250;10.410;2023-08-17T05:14:25;18.80;99.90
13389;DHT22;6764;53.250;10.410;2023-08-17T05:16:51;18.80;99.90
13389;DHT22;6764;53.250;10.410;2023-08-17T05:19:16;18.70;99.90
13389;DHT22;6764;53.250;10.410;2023-08-17T05:21:42;18.70;99.90
13389;DHT22;6764;53.250;10.410;2023-08-17T05:24:08;18.70;99.90
13389;DHT22;6764;53.250;10.410;2023-08-17T05:26:33;18.70;99.90
13389;DHT22;6764;53.250;10.410;2023-08-17T05:28:59;18.70;99.90
13389;DHT22;6764;53.250;10.410;2023-08-17T05:31:25;18.60;99.90
13389;DHT22;6764;53.250;10.410;2023-08-17T05:33:50;18.60;99.90
13389;DHT22;6764;53.250;10.410;2023-08-17T05:36:17;18.40;99.90
13389;DHT22;6764;53.250;10.410;2023-08-17T05:38:42;18.40;99.90
13389;DHT22;6764;53.250;10.410;2023-08-17T05:41:08;18.30;99.90
13389;DHT22;6764;53.250;10.410;2023-08-17T05:43:34;18.30;99.90
13389;DHT22;6764;53.250;10.410;2023-08-17T05:45:59;18.20;99.90
13389;DHT22;6764;53.250;10.410;2023-08-17T05:48:25;18.20;99.90
13389;DHT22;6764;53.250;10.410;2023-08-17T05:50:51;18.10;99.90
13389;DHT22;6764;53.250;10.410;2023-08-17T05:53:17;17.90;99.90
13389;DHT22;6764;53.250;10.410;2023-08-17T05:55:42;17.90;99.90
13389;DHT22;6764;53.250;10.410;2023-08-17T05:58:08;17.80;99.90
13389;DHT22;6764;53.250;10.410;2023-08-17T06:00:33;17.90;99.90
13389;DHT22;6764;53.250;10.410;2023-08-17T06:03:00;18.00;99.90
13389;DHT22;6764;53.250;10.410;2023-08-17T06:05:29;18.00;99.90
13389;DHT22;6764;53.250;10.410;2023-08-17T06:07:57;18.10;99.90
13389;DHT22;6764;53.250;10.410;2023-08-17T06:10:23;17.90;99.90
13389;DHT22;6764;53.250;10.410;2023-08-17T06:12:53;17.80;99.90
13389;DHT22;6764;53.250;10.410;2023-08-17T06:15:19;17.70;99.90
13389;DHT22;6764;53.250;10.410;2023-08-17T06:17:45;17.60;99.90
13389;DHT22;6764;53.250;10.410;2023-08-17T06:20:12;17.50;99.90
13389;DHT22;6764;53.250;10.410;2023-08-17T06:22:37;17.50;99.90
13389;DHT22;6764;53.250;10.410;2023-08-17T06:25:04;17.40;99.90
13389;DHT22;6764;53.250;10.410;2023-08-17T06:27:31;17.30;99.90
13389;DHT22;6764;53.250;10.410;2023-08-17T06:29:57;17.30;99.90
13389;DHT22;6764;53.250;10.410;2023-08-17T06:32:22;17.40;99.90
13389;DHT22;6764;53.250;10.410;2023-08-17T06:34:48;17.50;99.90
13389;DHT22;6764;53.250;10.410;2023-08-17T06:37:14;17.40;99.90
13389;DHT22;6764;53.250;10.410;2023-08-17T06:39:40;17.40;99.90
13389;DHT22;6764;53.250;10.410;2023-08-17T06:42:05;17.40;99.90
13389;DHT22;6764;53.250;10.410;2023-08-17T06:44:31;17.30;99.90
13389;DHT22;6764;53.250;10.410;2023-08-17T06:46:57;17.20;99.90
13389;DHT22;6764;53.250;10.410;2023-08-17T06:49:24;17.30;99.90
13389;DHT22;6764;53.250;10.410;2023-08-17T06:51:50;17.40;99.90
13389;DHT22;6764;53.250;10.410;2023-08-17T06:54:15;17.40;99.90
13389;DHT22;6764;53.250;10.410;2023-08-17T06:56:41;17.10;99.90
13389;DHT22;6764;53.250;10.410;2023-08-17T06:59:07;17.00;99.90
13389;DHT22;6764;53.250;10.410;2023-08-17T07:01:32;16.90;99.90
13389;DHT22;6764;53.250;10.410;2023-08-17T07:03:58;16.90;99.90
13389;DHT22;6764;53.250;10.410;2023-08-17T07:06:24;16.90;99.90
13389;DHT22;6764;53.250;10.410;2023-08-17T07:08:50;16.80;99.90
13389;DHT22;6764;53.250;10.410;2023-08-17T07:11:15;16.80;99.90
13389;DHT22;6764;53.250;10.410;2023-08-17T07:13:41;16.80;99.90
13389;DHT22;6764;53.250;10.410;2023-08-17T07:16:07;16.70;99.90
13389;DHT22;6764;53.250;10.410;2023-08-17T07:18:32;16.60;99.90
13389;DHT22;6764;53.250;10.410;2023-08-17T07:20:58;16.60;99.90
13389;DHT22;6764;53.250;10.410;2023-08-17T07:23:23;16.70;99.90
13389;DHT22;6764;53.250;10.410;2023-08-17T07:25:49;16.80;99.90
13389;DHT22;6764;53.250;10.410;2023-08-17T07:28:14;16.80;99.90
13389;DHT22;6764;53.250;10.410;2023-08-17T07:30:41;16.90;99.90
13389;DHT22;6764;53.250;10.410;2023-08-17T07:33:07;16.90;99.90
13389;DHT22;6764;53.250;10.410;2023-08-17T07:35:32;16.90;99.90
13389;DHT22;6764;53.250;10.410;2023-08-17T07:37:58;17.00;99.90
13389;DHT22;6764;53.250;10.410;2023-08-17T07:40:23;16.80;99.90
13389;DHT22;6764;53.250;10.410;2023-08-17T07:42:49;16.90;99.90
13389;DHT22;6764;53.250;10.410;2023-08-17T07:45:15;17.00;99.90
13389;DHT22;6764;53.250;10.410;2023-08-17T07:47:40;17.10;99.90
13389;DHT22;6764;53.250;10.410;2023-08-17T07:50:07;17.20;99.90
13389;DHT22;6764;53.250;10.410;2023-08-17T07:52:33;17.20;99.90
13389;DHT22;6764;53.250;10.410;2023-08-17T07:54:58;17.20;99.90
13389;DHT22;6764;53.250;10.410;2023-08-17T07:57:24;17.10;99.90
13389;DHT22;6764;53.250;10.410;2023-08-17T07:59:50;17.20;99.90
13389;DHT22;6764;53.250;10.410;2023-08-17T08:02:17;17.30;99.90
13389;DHT22;6764;53.250;10.410;2023-08-17T08:04:43;17.20;99.90
13389;DHT22;6764;53.250;10.410;2023-08-17T08:07:09;17.20;99.90
13389;DHT22;6764;53.250;10.410;2023-08-17T08:09:35;17.10;99.90
13389;DHT22;6764;53.250;10.410;2023-08-17T08:12:00;17.00;99.90
13389;DHT22;6764;53.250;10.410;2023-08-17T08:14:26;17.10;99.90
13389;DHT22;6764;53.250;10.410;2023-08-17T08:16:51;17.10;99.90
13389;DHT22;6764;53.250;10.410;2023-08-17T08:19:17;17.10;99.90
13389;DHT22;6764;53.250;10.410;2023-08-17T08:21:43;17.10;99.90
13389;DHT22;6764;53.250;10.410;2023-08-17T08:24:08;17.20;99.90
13389;DHT22;6764;53.250;10.410;2023-08-17T08:26:34;17.30;99.90
13389;DHT22;6764;53.250;10.410;2023-08-17T08:29:00;17.40;99.90
13389;DHT22;6764;53.250;10.410;2023-08-17T08:31:25;17.40;99.90
13389;DHT22;6764;53.250;10.410;2023-08-17T08:33:51;17.50;99.90
13389;DHT22;6764;53.250;10.410;2023-08-17T08:36:18;17.60;99.90
13389;DHT22;6764;53.250;10.410;2023-08-17T08:38:44;17.60;99.90
13389;DHT22;6764;53.250;10.410;2023-08-17T08:41:10;17.60;99.90
13389;DHT22;6764;53.250;10.410;2023-08-17T08:43:36;17.60;99.90
13389;DHT22;6764;53.250;10.410;2023-08-17T08:46:02;17.60;99.90
13389;DHT22;6764;53.250;10.410;2023-08-17T08:48:29;17.70;99.90
13389;DHT22;6764;53.250;10.410;2023-08-17T08:50:55;17.70;99.90
13389;DHT22;6764;53.250;10.410;2023-08-17T08:53:32;17.70;99.90
13389;DHT22;6764;53.250;10.410;2023-08-17T08:56:03;17.80;99.90
13389;DHT22;6764;53.250;10.410;2023-08-17T08:58:29;17.80;99.90
13389;DHT22;6764;53.250;10.410;2023-08-17T09:00:57;17.80;99.90
13389;DHT22;6764;53.250;10.410;2023-08-17T09:03:24;17.80;99.90
13389;DHT22;6764;53.250;10.410;2023-08-17T09:05:51;17.80;99.90
13389;DHT22;6764;53.250;10.410;2023-08-17T09:08:21;17.90;99.90
13389;DHT22;6764;53.250;10.410;2023-08-17T09:10:48;18.00;99.90
13389;DHT22;6764;53.250;10.410;2023-08-17T09:13:14;18.00;99.90
13389;DHT22;6764;53.250;10.410;2023-08-17T09:15:39;18.00;99.90
13389;DHT22;6764;53.250;10.410;2023-08-17T09:18:06;18.10;99.90
13389;DHT22;6764;53.250;10.410;2023-08-17T09:20:45;18.20;99.90
13389;DHT22;6764;53.250;10.410;2023-08-17T09:23:15;18.20;99.90
13389;DHT22;6764;53.250;10.410;2023-08-17T09:25:43;18.30;99.90
13389;DHT22;6764;53.250;10.410;2023-08-17T09:28:10;18.40;99.90
13389;DHT22;6764;53.250;10.410;2023-08-17T09:31:09;18.40;99.90
13389;DHT22;6764;53.250;10.410;2023-08-17T09:33:35;18.40;99.90
13389;DHT22;6764;53.250;10.410;2023-08-17T09:36:01;18.40;99.90
13389;DHT22;6764;53.250;10.410;2023-08-17T09:38:27;18.50;99.90
13389;DHT22;6764;53.250;10.410;2023-08-17T09:40:53;18.40;99.90
13389;DHT22;6764;53.250;10.410;2023-08-17T09:43:19;18.40;99.90
13389;DHT22;6764;53.250;10.410;2023-08-17T09:45:47;18.30;99.90
13389;DHT22;6764;53.250;10.410;2023-08-17T09:48:17;18.30;99.90
13389;DHT22;6764;53.250;10.410;2023-08-17T09:50:46;18.30;99.90
13389;DHT22;6764;53.250;10.410;2023-08-17T09:53:17;18.30;99.90
13389;DHT22;6764;53.250;10.410;2023-08-17T09:55:44;18.30;99.90
13389;DHT22;6764;53.250;10.410;2023-08-17T09:58:10;18.20;99.90
13389;DHT22;6764;53.250;10.410;2023-08-17T10:00:44;18.10;99.90
13389;DHT22;6764;53.250;10.410;2023-08-17T10:03:11;18.10;99.90
13389;DHT22;6764;53.250;10.410;2023-08-17T10:05:40;18.10;99.90
13389;DHT22;6764;53.250;10.410;2023-08-17T10:08:07;18.10;99.90
13389;DHT22;6764;53.250;10.410;2023-08-17T10:10:35;18.10;99.90
13389;DHT22;6764;53.250;10.410;2023-08-17T10:13:25;18.10;99.90
13389;DHT22;6764;53.250;10.410;2023-08-17T10:16:23;18.10;99.90
13389;DHT22;6764;53.250;10.410;2023-08-17T10:19:08;18.00;99.90
13389;DHT22;6764;53.250;10.410;2023-08-17T10:21:54;18.00;99.90
13389;DHT22;6764;53.250;10.410;2023-08-17T10:24:21;18.00;99.90
13389;DHT22;6764;53.250;10.410;2023-08-17T10:26:49;18.00;99.90
13389;DHT22;6764;53.250;10.410;2023-08-17T10:29:15;18.00;99.90
13389;DHT22;6764;53.250;10.410;2023-08-17T10:31:44;18.10;99.90
13389;DHT22;6764;53.250;10.410;2023-08-17T10:34:13;18.10;99.90
13389;DHT22;6764;53.250;10.410;2023-08-17T10:36:39;18.20;99.90
13389;DHT22;6764;53.250;10.410;2023-08-17T10:39:22;18.10;99.90
13389;DHT22;6764;53.250;10.410;2023-08-17T10:41:49;18.00;99.90
13389;DHT22;6764;53.250;10.410;2023-08-17T10:44:17;17.90;99.90
13389;DHT22;6764;53.250;10.410;2023-08-17T10:46:42;17.90;99.90
13389;DHT22;6764;53.250;10.410;2023-08-17T10:49:26;17.90;99.90
13389;DHT22;6764;53.250;10.410;2023-08-17T10:52:06;17.80;99.90
13389;DHT22;6764;53.250;10.410;2023-08-17T10:54:37;17.70;99.90
13389;DHT22;6764;53.250;10.410;2023-08-17T10:57:28;17.70;99.90
13389;DHT22;6764;53.250;10.410;2023-08-17T11:00:16;17.60;99.90
13389;DHT22;6764;53.250;10.410;2023-08-17T11:05:37;17.50;99.90
13389;DHT22;6764;53.250;10.410;2023-08-17T11:08:07;17.60;99.90
13389;DHT22;6764;53.250;10.410;2023-08-17T11:10:34;17.60;99.90
13389;DHT22;6764;53.250;10.410;2023-08-17T11:13:01;17.70;99.90
13389;DHT22;6764;53.250;10.410;2023-08-17T11:15:41;17.70;99.90
13389;DHT22;6764;53.250;10.410;2023-08-17T11:18:13;17.60;99.90
13389;DHT22;6764;53.250;10.410;2023-08-17T11:20:41;17.70;99.90
13389;DHT22;6764;53.250;10.410;2023-08-17T11:23:07;17.60;99.90
13389;DHT22;6764;53.250;10.410;2023-08-17T11:25:34;17.60;99.90
13389;DHT22;6764;53.250;10.410;2023-08-17T11:28:01;17.70;99.90
13389;DHT22;6764;53.250;10.410;2023-08-17T11:30:27;17.60;99.90
13389;DHT22;6764;53.250;10.410;2023-08-17T11:32:54;17.70;99.90
13389;DHT22;6764;53.250;10.410;2023-08-17T11:35:20;17.70;99.90
13389;DHT22;6764;53.250;10.410;2023-08-17T11:37:48;17.60;99.90
13389;DHT22;6764;53.250;10.410;2023-08-17T11:40:14;17.70;99.90
13389;DHT22;6764;53.250;10.410;2023-08-17T11:42:41;17.80;99.90
13389;DHT22;6764;53.250;10.410;2023-08-17T11:45:08;17.90;99.90
13389;DHT22;6764;53.250;10.410;2023-08-17T11:47:38;17.90;99.90
13389;DHT22;6764;53.250;10.410;2023-08-17T11:50:06;17.90;99.90
13389;DHT22;6764;53.250;10.410;2023-08-17T11:52:32;17.90;99.90
13389;DHT22;6764;53.250;10.410;2023-08-17T11:54:58;17.90;99.90
13389;DHT22;6764;53.250;10.410;2023-08-17T11:57:24;18.00;99.90
13389;DHT22;6764;53.250;10.410;2023-08-17T11:59:57;18.00;99.90
13389;DHT22;6764;53.250;10.410;2023-08-17T12:02:24;18.00;99.90
13389;DHT22;6764;53.250;10.410;2023-08-17T12:04:50;18.10;99.90
13389;DHT22;6764;53.250;10.410;2023-08-17T12:07:17;18.20;99.90
13389;DHT22;6764;53.250;10.410;2023-08-17T12:09:46;18.20;99.90
13389;DHT22;6764;53.250;10.410;2023-08-17T12:12:12;18.30;99.90
13389;DHT22;6764;53.250;10.410;2023-08-17T12:14:41;18.30;99.90
13389;DHT22;6764;53.250;10.410;2023-08-17T12:17:14;18.40;99.90
13389;DHT22;6764;53.250;10.410;2023-08-17T12:19:40;18.40;99.90
13389;DHT22;6764;53.250;10.410;2023-08-17T12:22:05;18.40;99.90
13389;DHT22;6764;53.250;10.410;2023-08-17T12:24:31;18.40;99.90
13389;DHT22;6764;53.250;10.410;2023-08-17T12:26:57;18.40;99.90
13389;DHT22;6764;53.250;10.410;2023-08-17T12:29:24;18.50;99.90
13389;DHT22;6764;53.250;10.410;2023-08-17T12:31:51;18.60;99.90
13389;DHT22;6764;53.250;10.410;2023-08-17T12:34:17;18.60;99.90
13389;DHT22;6764;53.250;10.410;2023-08-17T12:36:44;18.70;99.90
13389;DHT22;6764;53.250;10.410;2023-08-17T12:39:09;18.80;99.90
13389;DHT22;6764;53.250;10.410;2023-08-17T12:41:35;18.70;99.90
13389;DHT22;6764;53.250;10.410;2023-08-17T12:44:01;18.70;99.90
13389;DHT22;6764;53.250;10.410;2023-08-17T12:46:27;18.70;99.90
13389;DHT22;6764;53.250;10.410;2023-08-17T12:48:53;18.80;99.90
13389;DHT22;6764;53.250;10.410;2023-08-17T12:51:18;18.80;99.90
13389;DHT22;6764;53.250;10.410;2023-08-17T12:53:44;18.90;99.90
13389;DHT22;6764;53.250;10.410;2023-08-17T12:56:10;18.90;99.90
13389;DHT22;6764;53.250;10.410;2023-08-17T12:58:35;18.80;99.90
13389;DHT22;6764;53.250;10.410;2023-08-17T13:01:02;18.90;99.90
13389;DHT22;6764;53.250;10.410;2023-08-17T13:03:28;18.70;99.90
13389;DHT22;6764;53.250;10.410;2023-08-17T13:05:54;18.70;99.90
13389;DHT22;6764;53.250;10.410;2023-08-17T13:08:20;18.70;99.90
13389;DHT22;6764;53.250;10.410;2023-08-17T13:10:45;18.70;99.90
13389;DHT22;6764;53.250;10.410;2023-08-17T13:13:11;18.70;99.90
13389;DHT22;6764;53.250;10.410;2023-08-17T13:15:37;18.70;99.90
13389;DHT22;6764;53.250;10.410;2023-08-17T13:18:02;18.50;99.90
13389;DHT22;6764;53.250;10.410;2023-08-17T13:20:28;18.50;99.90
13389;DHT22;6764;53.250;10.410;2023-08-17T13:22:54;18.50;99.90
13389;DHT22;6764;53.250;10.410;2023-08-17T13:25:19;18.40;99.90
13389;DHT22;6764;53.250;10.410;2023-08-17T13:27:45;18.50;99.90
13389;DHT22;6764;53.250;10.410;2023-08-17T13:30:11;18.50;99.90
13389;DHT22;6764;53.250;10.410;2023-08-17T13:32:37;18.50;99.90
13389;DHT22;6764;53.250;10.410;2023-08-17T13:35:03;18.50;99.90
13389;DHT22;6764;53.250;10.410;2023-08-17T13:37:29;18.50;99.90
13389;DHT22;6764;53.250;10.410;2023-08-17T13:42:26;18.40;99.90
13389;DHT22;6764;53.250;10.410;2023-08-17T13:44:51;18.40;99.90
13389;DHT22;6764;53.250;10.410;2023-08-17T13:47:17;18.40;99.90
13389;DHT22;6764;53.250;10.410;2023-08-17T13:49:42;18.40;99.90
13389;DHT22;6764;53.250;10.410;2023-08-17T13:52:08;18.30;99.90
13389;DHT22;6764;53.250;10.410;2023-08-17T13:54:34;18.40;99.90
13389;DHT22;6764;53.250;10.410;2023-08-17T13:57:00;18.40;99.90
13389;DHT22;6764;53.250;10.410;2023-08-17T13:59:25;18.30;99.90
13389;DHT22;6764;53.250;10.410;2023-08-17T14:01:51;18.40;99.90
13389;DHT22;6764;53.250;10.410;2023-08-17T14:04:16;18.40;99.90
13389;DHT22;6764;53.250;10.410;2023-08-17T14:06:43;18.40;99.90
13389;DHT22;6764;53.250;10.410;2023-08-17T14:09:09;18.40;99.90
13389;DHT22;6764;53.250;10.410;2023-08-17T14:11:34;18.40;99.90
13389;DHT22;6764;53.250;10.410;2023-08-17T14:14:00;18.50;99.90
13389;DHT22;6764;53.250;10.410;2023-08-17T14:16:26;18.60;99.90
13389;DHT22;6764;53.250;10.410;2023-08-17T14:18:51;18.70;99.90
13389;DHT22;6764;53.250;10.410;2023-08-17T14:21:17;18.70;99.90
13389;DHT22;6764;53.250;10.410;2023-08-17T14:23:43;18.70;99.90
13389;DHT22;6764;53.250;10.410;2023-08-17T14:26:09;18.70;99.90
13389;DHT22;6764;53.250;10.410;2023-08-17T14:28:35;18.70;99.90
13389;DHT22;6764;53.250;10.410;2023-08-17T14:31:01;18.70;99.90
13389;DHT22;6764;53.250;10.410;2023-08-17T14:33:26;18.70;99.90
13389;DHT22;6764;53.250;10.410;2023-08-17T14:35:52;18.70;99.90
13389;DHT22;6764;53.250;10.410;2023-08-17T14:38:18;18.80;99.90
13389;DHT22;6764;53.250;10.410;2023-08-17T14:40:45;18.80;99.90
13389;DHT22;6764;53.250;10.410;2023-08-17T14:43:11;18.80;99.90
13389;DHT22;6764;53.250;10.410;2023-08-17T14:45:39;18.80;99.90
13389;DHT22;6764;53.250;10.410;2023-08-17T14:48:06;18.90;99.90
13389;DHT22;6764;53.250;10.410;2023-08-17T14:50:35;18.90;99.90
13389;DHT22;6764;53.250;10.410;2023-08-17T14:53:02;19.00;99.90
13389;DHT22;6764;53.250;10.410;2023-08-17T14:55:29;19.00;99.90
13389;DHT22;6764;53.250;10.410;2023-08-17T14:57:55;19.20;99.90
13389;DHT22;6764;53.250;10.410;2023-08-17T15:00:21;19.30;99.90
13389;DHT22;6764;53.250;10.410;2023-08-17T15:02:46;19.30;99.90
13389;DHT22;6764;53.250;10.410;2023-08-17T15:05:12;19.10;99.90
13389;DHT22;6764;53.250;10.410;2023-08-17T15:07:38;19.00;99.90
13389;DHT22;6764;53.250;10.410;2023-08-17T15:10:03;18.80;99.90
13389;DHT22;6764;53.250;10.410;2023-08-17T15:12:29;18.80;99.90
13389;DHT22;6764;53.250;10.410;2023-08-17T15:14:55;18.80;99.90
13389;DHT22;6764;53.250;10.410;2023-08-17T15:17:20;18.90;99.90
13389;DHT22;6764;53.250;10.410;2023-08-17T15:19:46;18.90;99.90
13389;DHT22;6764;53.250;10.410;2023-08-17T15:22:12;18.80;99.90
13389;DHT22;6764;53.250;10.410;2023-08-17T15:24:37;19.00;99.90
13389;DHT22;6764;53.250;10.410;2023-08-17T15:27:03;18.90;99.90
13389;DHT22;6764;53.250;10.410;2023-08-17T15:29:29;18.90;99.90
13389;DHT22;6764;53.250;10.410;2023-08-17T15:31:54;18.80;99.90
13389;DHT22;6764;53.250;10.410;2023-08-17T15:34:20;18.80;99.90